createdAt,value
2022-12-16T00:01:22.796Z,98.32
2022-12-16T00:06:26.294Z,97.67
2022-12-16T00:11:27.819Z,100.00
2022-12-16T00:16:29.064Z,100.00
2022-12-16T00:21:30.031Z,100.00
2022-12-16T00:26:31.015Z,100.00
2022-12-16T00:31:32.287Z,100.00
2022-12-16T00:36:33.729Z,100.00
2022-12-16T00:41:34.576Z,100.00
2022-12-16T00:46:35.464Z,100.00
2022-12-16T00:51:36.194Z,100.00
2022-12-16T00:56:36.990Z,100.00
2022-12-16T01:01:37.911Z,100.00
2022-12-16T01:06:39.456Z,100.00
2022-12-16T01:11:40.163Z,100.00
2022-12-16T01:16:41.091Z,100.00
2022-12-16T01:21:41.960Z,100.00
2022-12-16T01:26:42.757Z,100.00
2022-12-16T01:31:43.758Z,100.00
2022-12-16T01:36:44.981Z,100.00
2022-12-16T01:41:45.749Z,100.00
2022-12-16T01:46:53.152Z,100.00
2022-12-16T01:52:01.629Z,100.00
2022-12-16T01:57:07.945Z,100.00
2022-12-16T02:02:10.113Z,100.00
2022-12-16T02:07:11.042Z,100.00
2022-12-16T02:12:26.719Z,100.00
2022-12-16T02:17:37.685Z,100.00
2022-12-16T02:23:26.626Z,99.59
2022-12-16T02:29:04.976Z,98.27
2022-12-16T02:34:23.731Z,100.00
2022-12-16T02:39:41.023Z,100.00
2022-12-16T02:51:32.764Z,100.00
2022-12-16T02:56:49.718Z,100.00
2022-12-16T03:02:04.606Z,100.00
2022-12-16T03:07:12.578Z,100.00
2022-12-16T03:12:17.308Z,100.00
2022-12-16T03:17:21.240Z,100.00
2022-12-16T03:22:27.111Z,100.00
2022-12-16T03:28:15.950Z,100.00
2022-12-16T03:33:29.736Z,100.00
2022-12-16T03:38:33.013Z,100.00
2022-12-16T03:43:34.400Z,100.00
2022-12-16T03:48:35.986Z,100.00
2022-12-16T03:53:36.704Z,100.00
2022-12-16T03:58:41.759Z,100.00
2022-12-16T04:03:42.540Z,100.00
2022-12-16T04:08:47.531Z,100.00
2022-12-16T04:14:06.935Z,100.00
2022-12-16T04:19:37.624Z,100.00
2022-12-16T04:24:38.567Z,100.00
2022-12-16T04:30:18.244Z,100.00
2022-12-16T04:35:37.953Z,100.00
2022-12-16T04:40:57.295Z,100.00
2022-12-16T04:46:16.859Z,100.00
2022-12-16T04:51:36.386Z,100.00
2022-12-16T04:56:55.859Z,100.00
2022-12-16T05:02:15.620Z,100.00
2022-12-16T05:07:38.462Z,100.00
2022-12-16T05:12:58.079Z,100.00
2022-12-16T05:18:17.479Z,100.00
2022-12-16T05:23:37.195Z,100.00
2022-12-16T05:28:56.640Z,100.00
2022-12-16T05:34:16.258Z,100.00
2022-12-16T05:39:35.709Z,99.89
2022-12-16T05:44:55.288Z,100.00
2022-12-16T05:50:14.813Z,100.00
2022-12-16T05:55:35.899Z,100.00
2022-12-16T06:00:55.507Z,100.00
2022-12-16T06:06:15.428Z,100.00
2022-12-16T06:11:34.883Z,100.00
2022-12-16T06:16:54.390Z,99.50
2022-12-16T06:22:13.753Z,99.50
2022-12-16T06:27:33.175Z,100.00
2022-12-16T06:32:52.644Z,100.00
2022-12-16T06:38:12.317Z,100.00
2022-12-16T06:43:32.344Z,100.00
2022-12-16T06:48:52.447Z,100.00
2022-12-16T06:54:12.197Z,100.00
2022-12-16T06:59:31.972Z,99.68
2022-12-16T07:04:51.474Z,99.16
2022-12-16T07:10:10.858Z,99.30
2022-12-16T07:15:30.536Z,98.76
2022-12-16T07:20:49.978Z,99.51
2022-12-16T07:26:10.556Z,100.00
2022-12-16T07:31:29.986Z,100.00
2022-12-16T07:36:49.405Z,100.00
2022-12-16T07:42:08.748Z,100.00
2022-12-16T07:47:28.146Z,99.51
2022-12-16T07:52:47.678Z,95.84
2022-12-16T07:58:09.119Z,95.84
2022-12-16T08:03:28.609Z,91.85
2022-12-16T08:08:47.820Z,90.37
2022-12-16T08:14:07.517Z,86.95
2022-12-16T08:19:27.513Z,87.39
2022-12-16T08:24:53.297Z,87.54
2022-12-16T08:30:13.242Z,85.97
2022-12-16T08:35:32.639Z,85.16
2022-12-16T08:40:52.091Z,83.58
2022-12-16T08:46:15.299Z,84.19
2022-12-16T08:51:35.115Z,85.15
2022-12-16T08:56:54.556Z,85.65
2022-12-16T09:02:15.326Z,81.57
2022-12-16T09:07:35.659Z,81.74
2022-12-16T09:12:55.117Z,79.03
2022-12-16T09:18:15.215Z,75.52
2022-12-16T09:23:34.989Z,75.24
2022-12-16T09:28:54.991Z,72.05
2022-12-16T09:34:14.641Z,70.86
2022-12-16T09:39:34.137Z,68.91
2022-12-16T09:45:28.911Z,67.45
2022-12-16T09:50:50.005Z,66.11
2022-12-16T09:56:10.528Z,65.17
2022-12-16T10:01:31.067Z,68.29
2022-12-16T10:06:59.959Z,67.62
2022-12-16T10:14:00.882Z,66.51
2022-12-16T10:21:24.722Z,66.47
2022-12-16T10:27:08.376Z,67.53
2022-12-16T10:32:56.307Z,65.43
2022-12-16T10:38:16.509Z,63.76
2022-12-16T10:45:19.823Z,64.22
2022-12-16T10:50:39.674Z,64.76
2022-12-16T10:59:13.961Z,62.83
2022-12-16T11:08:11.311Z,64.32
2022-12-16T11:13:53.261Z,64.19
2022-12-16T11:19:12.742Z,62.48
2022-12-16T11:24:38.143Z,66.42
2022-12-16T11:30:50.215Z,67.97
2022-12-16T11:36:12.659Z,65.99
2022-12-16T11:41:50.303Z,69.59
2022-12-16T11:47:10.434Z,70.87
2022-12-16T11:52:37.784Z,71.70
2022-12-16T11:58:11.140Z,69.53
2022-12-16T12:03:40.905Z,65.47
2022-12-16T12:10:07.033Z,69.13
2022-12-16T12:16:26.776Z,69.37
2022-12-16T12:22:10.162Z,70.86
2022-12-16T12:29:11.229Z,69.97
2022-12-16T12:34:53.479Z,72.01
2022-12-16T12:40:41.414Z,73.31
2022-12-16T12:46:31.389Z,73.16
2022-12-16T12:54:57.949Z,72.12
2022-12-16T13:00:38.486Z,66.82
2022-12-16T13:05:59.255Z,66.07
2022-12-16T13:11:35.301Z,64.21
2022-12-16T13:17:18.930Z,66.23
2022-12-16T13:22:52.038Z,64.12
2022-12-16T13:28:14.531Z,63.02
2022-12-16T13:36:15.621Z,63.25
2022-12-16T13:42:09.278Z,63.75
2022-12-16T13:47:51.196Z,61.33
2022-12-16T13:53:15.719Z,61.32
2022-12-16T13:58:56.316Z,60.64
2022-12-16T14:04:18.005Z,59.45
2022-12-16T14:09:45.875Z,61.63
2022-12-16T14:15:23.400Z,65.31
2022-12-16T14:20:53.554Z,64.84
2022-12-16T14:26:17.248Z,65.39
2022-12-16T14:31:50.680Z,65.44
2022-12-16T14:37:12.047Z,64.38
2022-12-16T14:42:43.110Z,66.03
2022-12-16T14:49:35.806Z,62.03
2022-12-16T14:55:01.077Z,61.67
2022-12-16T15:00:56.738Z,65.97
2022-12-16T15:06:16.736Z,67.45
2022-12-16T15:11:38.648Z,65.90
2022-12-16T15:17:00.388Z,67.01
2022-12-16T15:22:20.150Z,66.98
2022-12-16T15:27:44.133Z,73.64
2022-12-16T15:33:10.722Z,84.09
2022-12-16T15:39:13.730Z,89.74
2022-12-16T15:44:45.271Z,94.41
2022-12-16T15:50:06.715Z,98.35
2022-12-16T15:56:02.568Z,100.00
2022-12-16T16:01:26.369Z,100.00
2022-12-16T16:06:46.333Z,100.00
2022-12-16T16:12:05.654Z,100.00
2022-12-16T16:17:43.445Z,100.00
2022-12-16T16:23:02.807Z,100.00
2022-12-16T16:28:22.740Z,100.00
2022-12-16T16:33:42.216Z,100.00
2022-12-16T16:39:01.784Z,100.00
2022-12-16T16:44:21.218Z,100.00
2022-12-16T16:50:05.018Z,100.00
2022-12-16T16:55:25.896Z,100.00
2022-12-16T17:00:45.964Z,100.00
2022-12-16T17:06:05.630Z,100.00
2022-12-16T17:11:36.102Z,100.00
2022-12-16T17:16:55.530Z,100.00
2022-12-16T17:22:14.950Z,100.00
2022-12-16T17:27:37.818Z,100.00
2022-12-16T17:32:57.276Z,100.00
2022-12-16T17:38:16.715Z,100.00
2022-12-16T17:43:36.987Z,100.00
2022-12-16T17:48:56.362Z,100.00
2022-12-16T17:54:22.671Z,100.00
2022-12-16T17:59:44.834Z,100.00
2022-12-16T18:05:04.417Z,100.00
2022-12-16T18:10:25.115Z,100.00
2022-12-16T18:15:44.602Z,100.00
2022-12-16T18:21:03.797Z,100.00
2022-12-16T18:26:25.607Z,100.00
2022-12-16T18:31:45.099Z,100.00
2022-12-16T18:37:04.624Z,100.00
2022-12-16T18:42:24.234Z,100.00
2022-12-16T18:47:43.629Z,100.00
2022-12-16T18:53:03.102Z,100.00
2022-12-16T18:58:49.543Z,100.00
2022-12-16T19:04:11.741Z,100.00
2022-12-16T19:09:31.301Z,100.00
2022-12-16T19:14:50.627Z,100.00
2022-12-16T19:20:10.086Z,100.00
2022-12-16T19:25:29.555Z,100.00
2022-12-16T19:32:01.502Z,100.00
2022-12-16T19:37:21.433Z,100.00
2022-12-16T19:42:41.041Z,100.00
2022-12-16T19:48:00.896Z,100.00
2022-12-16T19:53:20.401Z,100.00
2022-12-16T19:58:40.296Z,100.00
2022-12-16T20:03:59.844Z,100.00
2022-12-16T20:09:20.289Z,100.00
2022-12-16T20:14:39.943Z,100.00
2022-12-16T20:19:59.449Z,100.00
2022-12-16T20:25:19.154Z,100.00
2022-12-16T20:30:38.676Z,100.00
2022-12-16T20:35:58.174Z,100.00
2022-12-16T20:41:19.541Z,100.00
2022-12-16T20:46:39.037Z,100.00
2022-12-16T20:51:58.524Z,100.00
2022-12-16T20:57:18.020Z,100.00
2022-12-16T21:02:37.640Z,100.00
2022-12-16T21:07:57.011Z,100.00
2022-12-16T21:14:57.320Z,100.00
2022-12-16T21:20:16.732Z,100.00
2022-12-16T21:25:36.308Z,100.00
2022-12-16T21:30:55.943Z,100.00
2022-12-16T21:36:15.938Z,100.00
2022-12-16T21:41:35.726Z,100.00
2022-12-16T21:46:55.336Z,100.00
2022-12-16T21:52:16.370Z,100.00
2022-12-16T21:57:35.778Z,100.00
2022-12-16T22:02:55.751Z,100.00
2022-12-16T22:08:15.732Z,100.00
2022-12-16T22:13:35.570Z,100.00
2022-12-16T22:18:56.135Z,100.00
2022-12-16T22:24:15.723Z,100.00
2022-12-16T22:29:35.240Z,100.00
2022-12-16T22:34:54.698Z,100.00
2022-12-16T22:40:15.024Z,100.00
2022-12-16T22:45:34.467Z,100.00
2022-12-16T22:50:54.062Z,100.00
2022-12-16T22:56:16.019Z,100.00
2022-12-16T23:01:35.582Z,100.00
2022-12-16T23:06:56.187Z,100.00
2022-12-16T23:12:15.782Z,96.71
2022-12-16T23:17:35.131Z,98.24
2022-12-16T23:22:54.895Z,99.78
2022-12-16T23:28:15.937Z,99.61
2022-12-16T23:33:36.136Z,98.16
2022-12-16T23:38:55.529Z,98.91
2022-12-16T23:44:16.135Z,99.13
2022-12-16T23:49:35.891Z,98.34
2022-12-16T23:54:55.563Z,99.36
